sensor_id;sensor_type;location;lat;lon;timestamp;P1;durP1;ratioP1;P2;durP2;ratioP2
69172;SDS011;56280;49.662;8.408;2023-05-24T00:00:07;13.60;;;5.43;;
69172;SDS011;56280;49.662;8.408;2023-05-24T00:02:37;13.43;;;5.60;;
69172;SDS011;56280;49.662;8.408;2023-05-24T00:05:06;12.77;;;5.20;;
69172;SDS011;56280;49.662;8.408;2023-05-24T00:07:33;14.60;;;5.53;;
69172;SDS011;56280;49.662;8.408;2023-05-24T00:10:02;10.27;;;5.07;;
69172;SDS011;56280;49.662;8.408;2023-05-24T00:12:28;13.55;;;5.60;;
69172;SDS011;56280;49.662;8.408;2023-05-24T00:14:53;12.77;;;5.00;;
69172;SDS011;56280;49.662;8.408;2023-05-24T00:17:22;11.60;;;4.70;;
69172;SDS011;56280;49.662;8.408;2023-05-24T00:19:50;12.27;;;5.18;;
69172;SDS011;56280;49.662;8.408;2023-05-24T00:22:18;12.25;;;5.68;;
69172;SDS011;56280;49.662;8.408;2023-05-24T00:24:45;13.30;;;5.57;;
69172;SDS011;56280;49.662;8.408;2023-05-24T00:27:12;13.90;;;5.93;;
69172;SDS011;56280;49.662;8.408;2023-05-24T00:29:40;13.70;;;5.53;;
69172;SDS011;56280;49.662;8.408;2023-05-24T00:32:05;14.05;;;5.68;;
69172;SDS011;56280;49.662;8.408;2023-05-24T00:34:44;13.57;;;5.90;;
69172;SDS011;56280;49.662;8.408;2023-05-24T00:37:09;11.93;;;5.60;;
69172;SDS011;56280;49.662;8.408;2023-05-24T00:39:36;13.98;;;5.38;;
69172;SDS011;56280;49.662;8.408;2023-05-24T00:42:01;12.67;;;5.10;;
69172;SDS011;56280;49.662;8.408;2023-05-24T00:44:27;12.37;;;5.90;;
69172;SDS011;56280;49.662;8.408;2023-05-24T00:47:03;12.85;;;5.22;;
69172;SDS011;56280;49.662;8.408;2023-05-24T00:49:34;13.00;;;5.10;;
69172;SDS011;56280;49.662;8.408;2023-05-24T00:51:59;13.68;;;5.50;;
69172;SDS011;56280;49.662;8.408;2023-05-24T00:54:29;12.70;;;5.80;;
69172;SDS011;56280;49.662;8.408;2023-05-24T00:56:54;16.23;;;5.65;;
69172;SDS011;56280;49.662;8.408;2023-05-24T00:59:21;13.57;;;5.75;;
69172;SDS011;56280;49.662;8.408;2023-05-24T01:01:50;13.60;;;5.28;;
69172;SDS011;56280;49.662;8.408;2023-05-24T01:04:16;13.52;;;5.35;;
69172;SDS011;56280;49.662;8.408;2023-05-24T01:06:57;13.43;;;5.80;;
69172;SDS011;56280;49.662;8.408;2023-05-24T01:12:25;12.07;;;6.27;;
69172;SDS011;56280;49.662;8.408;2023-05-24T01:18:06;15.63;;;9.47;;
69172;SDS011;56280;49.662;8.408;2023-05-24T01:20:38;16.20;;;14.35;;
69172;SDS011;56280;49.662;8.408;2023-05-24T01:28:28;20.20;;;13.65;;
69172;SDS011;56280;49.662;8.408;2023-05-24T01:30:57;18.92;;;11.88;;
69172;SDS011;56280;49.662;8.408;2023-05-24T01:33:23;17.52;;;12.10;;
69172;SDS011;56280;49.662;8.408;2023-05-24T01:35:49;18.60;;;11.87;;
69172;SDS011;56280;49.662;8.408;2023-05-24T01:38:14;16.67;;;10.97;;
69172;SDS011;56280;49.662;8.408;2023-05-24T01:40:40;17.10;;;11.23;;
69172;SDS011;56280;49.662;8.408;2023-05-24T01:43:11;19.20;;;15.13;;
69172;SDS011;56280;49.662;8.408;2023-05-24T01:51:33;22.83;;;20.00;;
69172;SDS011;56280;49.662;8.408;2023-05-24T01:54:05;23.30;;;18.90;;
69172;SDS011;56280;49.662;8.408;2023-05-24T01:56:31;21.13;;;18.88;;
69172;SDS011;56280;49.662;8.408;2023-05-24T01:58:58;20.57;;;18.40;;
69172;SDS011;56280;49.662;8.408;2023-05-24T02:01:26;20.25;;;18.15;;
69172;SDS011;56280;49.662;8.408;2023-05-24T02:03:52;20.40;;;15.55;;
69172;SDS011;56280;49.662;8.408;2023-05-24T02:06:18;18.85;;;16.85;;
69172;SDS011;56280;49.662;8.408;2023-05-24T02:08:44;17.10;;;13.03;;
69172;SDS011;56280;49.662;8.408;2023-05-24T02:11:10;19.05;;;12.07;;
69172;SDS011;56280;49.662;8.408;2023-05-24T02:13:35;17.30;;;13.83;;
69172;SDS011;56280;49.662;8.408;2023-05-24T02:16:00;15.47;;;13.20;;
69172;SDS011;56280;49.662;8.408;2023-05-24T02:18:26;19.37;;;16.30;;
69172;SDS011;56280;49.662;8.408;2023-05-24T02:20:51;19.80;;;15.23;;
69172;SDS011;56280;49.662;8.408;2023-05-24T02:23:17;21.27;;;17.17;;
69172;SDS011;56280;49.662;8.408;2023-05-24T02:25:42;22.20;;;19.97;;
69172;SDS011;56280;49.662;8.408;2023-05-24T02:28:07;19.47;;;16.77;;
69172;SDS011;56280;49.662;8.408;2023-05-24T02:30:33;20.50;;;18.33;;
69172;SDS011;56280;49.662;8.408;2023-05-24T02:32:58;22.93;;;20.53;;
69172;SDS011;56280;49.662;8.408;2023-05-24T02:35:24;23.40;;;19.48;;
69172;SDS011;56280;49.662;8.408;2023-05-24T02:37:50;23.77;;;21.60;;
69172;SDS011;56280;49.662;8.408;2023-05-24T02:40:15;25.13;;;22.50;;
69172;SDS011;56280;49.662;8.408;2023-05-24T02:42:40;23.40;;;21.13;;
69172;SDS011;56280;49.662;8.408;2023-05-24T02:45:06;24.87;;;22.37;;
69172;SDS011;56280;49.662;8.408;2023-05-24T02:47:31;25.87;;;23.57;;
69172;SDS011;56280;49.662;8.408;2023-05-24T02:49:57;24.77;;;19.83;;
69172;SDS011;56280;49.662;8.408;2023-05-24T02:52:22;23.70;;;20.63;;
69172;SDS011;56280;49.662;8.408;2023-05-24T02:54:48;23.27;;;21.17;;
69172;SDS011;56280;49.662;8.408;2023-05-24T02:57:13;24.95;;;22.45;;
69172;SDS011;56280;49.662;8.408;2023-05-24T02:59:39;22.37;;;20.07;;
69172;SDS011;56280;49.662;8.408;2023-05-24T03:02:04;23.00;;;20.70;;
69172;SDS011;56280;49.662;8.408;2023-05-24T03:04:29;22.63;;;20.37;;
69172;SDS011;56280;49.662;8.408;2023-05-24T03:06:55;22.23;;;19.67;;
69172;SDS011;56280;49.662;8.408;2023-05-24T03:09:20;22.70;;;20.53;;
69172;SDS011;56280;49.662;8.408;2023-05-24T03:11:45;21.27;;;19.17;;
69172;SDS011;56280;49.662;8.408;2023-05-24T03:14:11;22.27;;;19.40;;
69172;SDS011;56280;49.662;8.408;2023-05-24T03:16:36;21.10;;;18.80;;
69172;SDS011;56280;49.662;8.408;2023-05-24T03:19:02;21.70;;;19.37;;
69172;SDS011;56280;49.662;8.408;2023-05-24T03:21:27;22.80;;;18.77;;
69172;SDS011;56280;49.662;8.408;2023-05-24T03:23:53;23.37;;;20.57;;
69172;SDS011;56280;49.662;8.408;2023-05-24T03:26:18;22.87;;;20.60;;
69172;SDS011;56280;49.662;8.408;2023-05-24T03:28:44;23.33;;;20.83;;
69172;SDS011;56280;49.662;8.408;2023-05-24T03:31:11;24.80;;;22.48;;
69172;SDS011;56280;49.662;8.408;2023-05-24T03:33:36;20.17;;;18.13;;
69172;SDS011;56280;49.662;8.408;2023-05-24T03:36:02;20.67;;;18.40;;
69172;SDS011;56280;49.662;8.408;2023-05-24T03:38:28;23.00;;;20.70;;
69172;SDS011;56280;49.662;8.408;2023-05-24T03:40:53;20.57;;;18.57;;
69172;SDS011;56280;49.662;8.408;2023-05-24T03:43:19;21.50;;;19.33;;
69172;SDS011;56280;49.662;8.408;2023-05-24T03:45:45;24.10;;;21.87;;
69172;SDS011;56280;49.662;8.408;2023-05-24T03:48:10;22.05;;;18.92;;
69172;SDS011;56280;49.662;8.408;2023-05-24T03:50:35;22.08;;;19.33;;
69172;SDS011;56280;49.662;8.408;2023-05-24T03:53:01;21.13;;;18.13;;
69172;SDS011;56280;49.662;8.408;2023-05-24T03:55:26;22.27;;;20.27;;
69172;SDS011;56280;49.662;8.408;2023-05-24T03:57:51;22.90;;;18.93;;
69172;SDS011;56280;49.662;8.408;2023-05-24T04:00:17;21.23;;;18.50;;
69172;SDS011;56280;49.662;8.408;2023-05-24T04:02:42;21.63;;;19.10;;
69172;SDS011;56280;49.662;8.408;2023-05-24T04:05:08;20.63;;;18.07;;
69172;SDS011;56280;49.662;8.408;2023-05-24T04:07:36;22.30;;;19.60;;
69172;SDS011;56280;49.662;8.408;2023-05-24T04:10:04;23.85;;;19.35;;
69172;SDS011;56280;49.662;8.408;2023-05-24T04:12:32;23.48;;;17.83;;
69172;SDS011;56280;49.662;8.408;2023-05-24T04:14:58;23.57;;;21.33;;
69172;SDS011;56280;49.662;8.408;2023-05-24T04:17:24;23.80;;;21.30;;
69172;SDS011;56280;49.662;8.408;2023-05-24T04:19:51;23.45;;;20.90;;
69172;SDS011;56280;49.662;8.408;2023-05-24T04:22:16;19.83;;;17.83;;
69172;SDS011;56280;49.662;8.408;2023-05-24T04:24:42;20.40;;;18.20;;
69172;SDS011;56280;49.662;8.408;2023-05-24T04:27:08;20.45;;;18.40;;
69172;SDS011;56280;49.662;8.408;2023-05-24T04:29:34;23.65;;;20.38;;
69172;SDS011;56280;49.662;8.408;2023-05-24T04:31:59;24.92;;;22.40;;
69172;SDS011;56280;49.662;8.408;2023-05-24T04:34:27;19.77;;;17.40;;
69172;SDS011;56280;49.662;8.408;2023-05-24T04:36:53;22.00;;;19.48;;
69172;SDS011;56280;49.662;8.408;2023-05-24T04:39:19;21.93;;;19.70;;
69172;SDS011;56280;49.662;8.408;2023-05-24T04:41:45;23.45;;;19.33;;
69172;SDS011;56280;49.662;8.408;2023-05-24T04:44:10;22.03;;;19.70;;
69172;SDS011;56280;49.662;8.408;2023-05-24T04:46:35;23.33;;;21.00;;
69172;SDS011;56280;49.662;8.408;2023-05-24T04:49:01;21.70;;;19.40;;
69172;SDS011;56280;49.662;8.408;2023-05-24T04:51:26;23.47;;;21.07;;
69172;SDS011;56280;49.662;8.408;2023-05-24T04:53:51;21.90;;;19.80;;
69172;SDS011;56280;49.662;8.408;2023-05-24T04:56:17;23.30;;;17.17;;
69172;SDS011;56280;49.662;8.408;2023-05-24T04:58:43;19.10;;;16.67;;
69172;SDS011;56280;49.662;8.408;2023-05-24T05:01:08;21.63;;;17.13;;
69172;SDS011;56280;49.662;8.408;2023-05-24T05:03:34;21.03;;;17.83;;
69172;SDS011;56280;49.662;8.408;2023-05-24T05:05:59;23.73;;;19.20;;
69172;SDS011;56280;49.662;8.408;2023-05-24T05:08:24;20.43;;;16.53;;
69172;SDS011;56280;49.662;8.408;2023-05-24T05:10:50;19.47;;;13.50;;
69172;SDS011;56280;49.662;8.408;2023-05-24T05:13:15;14.60;;;9.90;;
69172;SDS011;56280;49.662;8.408;2023-05-24T05:15:40;16.17;;;7.07;;
69172;SDS011;56280;49.662;8.408;2023-05-24T05:18:06;15.23;;;5.47;;
69172;SDS011;56280;49.662;8.408;2023-05-24T05:20:31;16.33;;;4.27;;
69172;SDS011;56280;49.662;8.408;2023-05-24T05:22:56;16.47;;;4.07;;
69172;SDS011;56280;49.662;8.408;2023-05-24T05:25:22;14.30;;;3.60;;
69172;SDS011;56280;49.662;8.408;2023-05-24T05:27:47;11.83;;;3.20;;
69172;SDS011;56280;49.662;8.408;2023-05-24T05:30:12;11.43;;;3.33;;
69172;SDS011;56280;49.662;8.408;2023-05-24T05:32:38;12.33;;;3.80;;
69172;SDS011;56280;49.662;8.408;2023-05-24T05:35:03;14.17;;;4.00;;
69172;SDS011;56280;49.662;8.408;2023-05-24T05:37:29;17.85;;;4.70;;
69172;SDS011;56280;49.662;8.408;2023-05-24T05:39:55;14.83;;;4.03;;
69172;SDS011;56280;49.662;8.408;2023-05-24T05:42:20;15.93;;;3.43;;
69172;SDS011;56280;49.662;8.408;2023-05-24T05:44:45;13.23;;;3.60;;
69172;SDS011;56280;49.662;8.408;2023-05-24T05:47:11;13.03;;;3.77;;
69172;SDS011;56280;49.662;8.408;2023-05-24T05:49:36;14.77;;;4.47;;
69172;SDS011;56280;49.662;8.408;2023-05-24T05:52:02;17.57;;;5.60;;
69172;SDS011;56280;49.662;8.408;2023-05-24T05:54:28;16.52;;;4.95;;
69172;SDS011;56280;49.662;8.408;2023-05-24T05:56:54;12.27;;;4.20;;
69172;SDS011;56280;49.662;8.408;2023-05-24T05:59:20;15.15;;;5.38;;
69172;SDS011;56280;49.662;8.408;2023-05-24T06:01:45;14.37;;;4.00;;
69172;SDS011;56280;49.662;8.408;2023-05-24T06:04:12;13.20;;;3.33;;
69172;SDS011;56280;49.662;8.408;2023-05-24T06:06:39;16.48;;;3.17;;
69172;SDS011;56280;49.662;8.408;2023-05-24T06:09:04;15.07;;;3.60;;
69172;SDS011;56280;49.662;8.408;2023-05-24T06:11:30;14.75;;;3.55;;
69172;SDS011;56280;49.662;8.408;2023-05-24T06:13:55;13.53;;;3.30;;
69172;SDS011;56280;49.662;8.408;2023-05-24T06:16:20;12.43;;;3.60;;
69172;SDS011;56280;49.662;8.408;2023-05-24T06:18:46;13.50;;;3.57;;
69172;SDS011;56280;49.662;8.408;2023-05-24T06:21:11;14.67;;;3.70;;
69172;SDS011;56280;49.662;8.408;2023-05-24T06:23:38;13.70;;;3.58;;
69172;SDS011;56280;49.662;8.408;2023-05-24T06:26:03;15.97;;;3.20;;
69172;SDS011;56280;49.662;8.408;2023-05-24T06:28:28;13.60;;;3.10;;
69172;SDS011;56280;49.662;8.408;2023-05-24T06:30:54;12.87;;;3.57;;
69172;SDS011;56280;49.662;8.408;2023-05-24T06:33:19;14.70;;;3.70;;
69172;SDS011;56280;49.662;8.408;2023-05-24T06:35:44;16.27;;;3.80;;
69172;SDS011;56280;49.662;8.408;2023-05-24T06:38:10;12.40;;;3.40;;
69172;SDS011;56280;49.662;8.408;2023-05-24T06:40:35;16.73;;;3.97;;
69172;SDS011;56280;49.662;8.408;2023-05-24T06:43:00;15.37;;;3.70;;
69172;SDS011;56280;49.662;8.408;2023-05-24T06:45:26;15.93;;;3.53;;
69172;SDS011;56280;49.662;8.408;2023-05-24T06:47:51;15.00;;;3.20;;
69172;SDS011;56280;49.662;8.408;2023-05-24T06:50:17;16.53;;;3.40;;
69172;SDS011;56280;49.662;8.408;2023-05-24T06:52:42;14.97;;;3.73;;
69172;SDS011;56280;49.662;8.408;2023-05-24T06:55:08;13.73;;;3.30;;
69172;SDS011;56280;49.662;8.408;2023-05-24T06:57:33;15.25;;;3.15;;
69172;SDS011;56280;49.662;8.408;2023-05-24T06:59:58;17.70;;;3.63;;
69172;SDS011;56280;49.662;8.408;2023-05-24T07:02:24;11.95;;;3.13;;
69172;SDS011;56280;49.662;8.408;2023-05-24T07:04:51;14.77;;;3.47;;
69172;SDS011;56280;49.662;8.408;2023-05-24T07:07:17;13.85;;;3.10;;
69172;SDS011;56280;49.662;8.408;2023-05-24T07:09:42;12.70;;;3.40;;
69172;SDS011;56280;49.662;8.408;2023-05-24T07:12:08;15.53;;;3.10;;
69172;SDS011;56280;49.662;8.408;2023-05-24T07:14:34;13.23;;;2.92;;
69172;SDS011;56280;49.662;8.408;2023-05-24T07:16:59;13.10;;;3.25;;
69172;SDS011;56280;49.662;8.408;2023-05-24T07:19:24;15.63;;;3.13;;
69172;SDS011;56280;49.662;8.408;2023-05-24T07:21:56;13.35;;;3.72;;
69172;SDS011;56280;49.662;8.408;2023-05-24T07:24:21;15.18;;;3.15;;
69172;SDS011;56280;49.662;8.408;2023-05-24T07:26:48;14.23;;;3.30;;
69172;SDS011;56280;49.662;8.408;2023-05-24T07:29:14;12.80;;;3.03;;
69172;SDS011;56280;49.662;8.408;2023-05-24T07:31:39;12.38;;;3.20;;
69172;SDS011;56280;49.662;8.408;2023-05-24T07:34:04;12.13;;;3.33;;
69172;SDS011;56280;49.662;8.408;2023-05-24T07:36:30;13.87;;;3.47;;
69172;SDS011;56280;49.662;8.408;2023-05-24T07:38:57;16.00;;;3.47;;
69172;SDS011;56280;49.662;8.408;2023-05-24T07:41:24;17.50;;;3.53;;
69172;SDS011;56280;49.662;8.408;2023-05-24T07:43:53;16.13;;;3.20;;
69172;SDS011;56280;49.662;8.408;2023-05-24T07:46:19;12.05;;;3.33;;
69172;SDS011;56280;49.662;8.408;2023-05-24T07:48:44;11.73;;;3.20;;
69172;SDS011;56280;49.662;8.408;2023-05-24T07:51:10;13.17;;;3.30;;
69172;SDS011;56280;49.662;8.408;2023-05-24T07:53:35;12.97;;;3.33;;
69172;SDS011;56280;49.662;8.408;2023-05-24T07:56:01;13.35;;;3.20;;
69172;SDS011;56280;49.662;8.408;2023-05-24T07:58:27;13.90;;;2.97;;
69172;SDS011;56280;49.662;8.408;2023-05-24T08:00:52;14.83;;;3.83;;
69172;SDS011;56280;49.662;8.408;2023-05-24T08:03:18;13.70;;;3.25;;
69172;SDS011;56280;49.662;8.408;2023-05-24T08:05:43;15.18;;;3.15;;
69172;SDS011;56280;49.662;8.408;2023-05-24T08:08:08;15.73;;;3.37;;
69172;SDS011;56280;49.662;8.408;2023-05-24T08:10:34;12.93;;;2.90;;
69172;SDS011;56280;49.662;8.408;2023-05-24T08:12:59;11.53;;;3.27;;
69172;SDS011;56280;49.662;8.408;2023-05-24T08:15:25;12.93;;;3.47;;
69172;SDS011;56280;49.662;8.408;2023-05-24T08:17:50;12.03;;;2.80;;
69172;SDS011;56280;49.662;8.408;2023-05-24T08:20:15;14.20;;;3.50;;
69172;SDS011;56280;49.662;8.408;2023-05-24T08:22:42;10.95;;;3.20;;
69172;SDS011;56280;49.662;8.408;2023-05-24T08:25:08;14.53;;;3.30;;
69172;SDS011;56280;49.662;8.408;2023-05-24T08:27:34;11.55;;;3.42;;
69172;SDS011;56280;49.662;8.408;2023-05-24T08:29:59;12.93;;;3.43;;
69172;SDS011;56280;49.662;8.408;2023-05-24T08:32:25;14.40;;;3.60;;
69172;SDS011;56280;49.662;8.408;2023-05-24T08:34:50;13.57;;;3.00;;
69172;SDS011;56280;49.662;8.408;2023-05-24T08:37:16;12.68;;;3.03;;
69172;SDS011;56280;49.662;8.408;2023-05-24T08:39:46;13.38;;;3.08;;
69172;SDS011;56280;49.662;8.408;2023-05-24T08:42:12;14.40;;;3.13;;
69172;SDS011;56280;49.662;8.408;2023-05-24T08:44:40;12.90;;;3.30;;
69172;SDS011;56280;49.662;8.408;2023-05-24T08:47:12;13.27;;;3.67;;
69172;SDS011;56280;49.662;8.408;2023-05-24T08:49:38;14.20;;;3.50;;
69172;SDS011;56280;49.662;8.408;2023-05-24T08:52:04;18.35;;;3.78;;
69172;SDS011;56280;49.662;8.408;2023-05-24T08:54:31;14.75;;;3.30;;
69172;SDS011;56280;49.662;8.408;2023-05-24T08:56:59;13.37;;;3.40;;
69172;SDS011;56280;49.662;8.408;2023-05-24T08:59:25;15.18;;;4.00;;
69172;SDS011;56280;49.662;8.408;2023-05-24T09:01:51;15.43;;;4.00;;
69172;SDS011;56280;49.662;8.408;2023-05-24T09:04:18;13.13;;;3.50;;
69172;SDS011;56280;49.662;8.408;2023-05-24T09:06:46;12.65;;;3.75;;
69172;SDS011;56280;49.662;8.408;2023-05-24T09:09:13;15.38;;;3.40;;
69172;SDS011;56280;49.662;8.408;2023-05-24T09:11:42;13.48;;;3.70;;
69172;SDS011;56280;49.662;8.408;2023-05-24T09:14:08;16.15;;;3.88;;
69172;SDS011;56280;49.662;8.408;2023-05-24T09:16:34;16.00;;;4.03;;
69172;SDS011;56280;49.662;8.408;2023-05-24T09:19:00;12.48;;;3.50;;
69172;SDS011;56280;49.662;8.408;2023-05-24T09:21:25;17.73;;;4.83;;
69172;SDS011;56280;49.662;8.408;2023-05-24T09:23:51;15.30;;;4.13;;
69172;SDS011;56280;49.662;8.408;2023-05-24T09:26:17;12.63;;;3.67;;
69172;SDS011;56280;49.662;8.408;2023-05-24T09:28:43;15.73;;;4.10;;
69172;SDS011;56280;49.662;8.408;2023-05-24T09:31:09;15.00;;;4.00;;
69172;SDS011;56280;49.662;8.408;2023-05-24T09:33:34;15.93;;;4.03;;
69172;SDS011;56280;49.662;8.408;2023-05-24T09:36:00;13.30;;;3.60;;
69172;SDS011;56280;49.662;8.408;2023-05-24T09:38:28;13.50;;;3.70;;
69172;SDS011;56280;49.662;8.408;2023-05-24T09:41:03;10.13;;;3.37;;
69172;SDS011;56280;49.662;8.408;2023-05-24T09:43:30;13.27;;;3.63;;
69172;SDS011;56280;49.662;8.408;2023-05-24T09:46:00;13.95;;;3.65;;
69172;SDS011;56280;49.662;8.408;2023-05-24T09:48:29;14.63;;;3.75;;
69172;SDS011;56280;49.662;8.408;2023-05-24T09:51:13;11.48;;;3.60;;
69172;SDS011;56280;49.662;8.408;2023-05-24T09:53:40;16.27;;;4.30;;
69172;SDS011;56280;49.662;8.408;2023-05-24T09:56:08;13.43;;;3.97;;
69172;SDS011;56280;49.662;8.408;2023-05-24T09:58:34;15.68;;;4.32;;
69172;SDS011;56280;49.662;8.408;2023-05-24T10:01:07;14.43;;;3.83;;
69172;SDS011;56280;49.662;8.408;2023-05-24T10:03:55;13.35;;;3.85;;
69172;SDS011;56280;49.662;8.408;2023-05-24T10:06:22;14.80;;;3.97;;
69172;SDS011;56280;49.662;8.408;2023-05-24T10:08:48;16.67;;;4.30;;
69172;SDS011;56280;49.662;8.408;2023-05-24T10:11:14;15.32;;;3.78;;
69172;SDS011;56280;49.662;8.408;2023-05-24T10:13:40;14.37;;;4.00;;
69172;SDS011;56280;49.662;8.408;2023-05-24T10:16:06;14.30;;;4.25;;
69172;SDS011;56280;49.662;8.408;2023-05-24T10:18:31;16.87;;;4.60;;
69172;SDS011;56280;49.662;8.408;2023-05-24T10:20:57;13.60;;;4.33;;
69172;SDS011;56280;49.662;8.408;2023-05-24T10:23:23;13.07;;;4.05;;
69172;SDS011;56280;49.662;8.408;2023-05-24T10:26:03;14.35;;;4.20;;
69172;SDS011;56280;49.662;8.408;2023-05-24T10:28:40;12.48;;;3.95;;
69172;SDS011;56280;49.662;8.408;2023-05-24T10:31:13;14.63;;;3.92;;
69172;SDS011;56280;49.662;8.408;2023-05-24T10:33:43;11.17;;;3.47;;
69172;SDS011;56280;49.662;8.408;2023-05-24T10:36:10;13.82;;;3.45;;
69172;SDS011;56280;49.662;8.408;2023-05-24T10:38:37;11.02;;;3.40;;
69172;SDS011;56280;49.662;8.408;2023-05-24T10:41:04;15.25;;;4.13;;
69172;SDS011;56280;49.662;8.408;2023-05-24T10:43:32;14.25;;;3.80;;
69172;SDS011;56280;49.662;8.408;2023-05-24T10:45:58;13.70;;;4.07;;
69172;SDS011;56280;49.662;8.408;2023-05-24T10:50:51;13.83;;;4.20;;
69172;SDS011;56280;49.662;8.408;2023-05-24T10:53:17;12.97;;;3.50;;
69172;SDS011;56280;49.662;8.408;2023-05-24T11:01:01;12.25;;;3.70;;
69172;SDS011;56280;49.662;8.408;2023-05-24T11:03:33;12.80;;;3.77;;
69172;SDS011;56280;49.662;8.408;2023-05-24T11:05:59;11.07;;;3.45;;
69172;SDS011;56280;49.662;8.408;2023-05-24T11:08:31;11.77;;;3.43;;
69172;SDS011;56280;49.662;8.408;2023-05-24T11:13:35;13.27;;;3.60;;
69172;SDS011;56280;49.662;8.408;2023-05-24T11:16:01;14.27;;;4.00;;
69172;SDS011;56280;49.662;8.408;2023-05-24T11:18:27;12.73;;;3.73;;
69172;SDS011;56280;49.662;8.408;2023-05-24T11:20:52;11.77;;;3.50;;
69172;SDS011;56280;49.662;8.408;2023-05-24T11:23:18;13.30;;;3.93;;
69172;SDS011;56280;49.662;8.408;2023-05-24T11:25:47;14.60;;;4.10;;
69172;SDS011;56280;49.662;8.408;2023-05-24T11:28:12;11.43;;;3.75;;
69172;SDS011;56280;49.662;8.408;2023-05-24T11:30:41;12.17;;;3.80;;
69172;SDS011;56280;49.662;8.408;2023-05-24T11:33:12;13.57;;;3.60;;
69172;SDS011;56280;49.662;8.408;2023-05-24T11:35:46;12.00;;;3.60;;
69172;SDS011;56280;49.662;8.408;2023-05-24T11:38:13;11.18;;;3.65;;
69172;SDS011;56280;49.662;8.408;2023-05-24T11:40:43;10.85;;;3.72;;
69172;SDS011;56280;49.662;8.408;2023-05-24T11:43:10;11.45;;;3.42;;
69172;SDS011;56280;49.662;8.408;2023-05-24T11:45:36;10.55;;;3.50;;
69172;SDS011;56280;49.662;8.408;2023-05-24T11:48:04;13.82;;;3.78;;
69172;SDS011;56280;49.662;8.408;2023-05-24T11:50:30;9.63;;;3.80;;
69172;SDS011;56280;49.662;8.408;2023-05-24T11:53:00;10.67;;;3.40;;
69172;SDS011;56280;49.662;8.408;2023-05-24T11:55:27;11.03;;;3.37;;
69172;SDS011;56280;49.662;8.408;2023-05-24T11:57:53;11.53;;;3.40;;
69172;SDS011;56280;49.662;8.408;2023-05-24T12:00:25;11.57;;;3.65;;
69172;SDS011;56280;49.662;8.408;2023-05-24T12:02:51;13.27;;;3.40;;
69172;SDS011;56280;49.662;8.408;2023-05-24T12:05:17;11.23;;;3.63;;
69172;SDS011;56280;49.662;8.408;2023-05-24T12:07:43;12.23;;;4.18;;
69172;SDS011;56280;49.662;8.408;2023-05-24T12:10:12;12.15;;;3.80;;
69172;SDS011;56280;49.662;8.408;2023-05-24T12:12:42;14.00;;;4.38;;
69172;SDS011;56280;49.662;8.408;2023-05-24T12:15:08;13.93;;;3.88;;
69172;SDS011;56280;49.662;8.408;2023-05-24T12:17:34;11.77;;;3.53;;
69172;SDS011;56280;49.662;8.408;2023-05-24T12:20:00;12.15;;;3.75;;
69172;SDS011;56280;49.662;8.408;2023-05-24T12:22:28;13.07;;;4.30;;
69172;SDS011;56280;49.662;8.408;2023-05-24T12:24:55;12.10;;;3.80;;
69172;SDS011;56280;49.662;8.408;2023-05-24T12:27:24;12.13;;;3.60;;
69172;SDS011;56280;49.662;8.408;2023-05-24T12:29:51;11.05;;;3.95;;
69172;SDS011;56280;49.662;8.408;2023-05-24T12:32:16;13.13;;;4.70;;
69172;SDS011;56280;49.662;8.408;2023-05-24T12:34:42;11.65;;;3.50;;
69172;SDS011;56280;49.662;8.408;2023-05-24T12:37:08;13.20;;;4.10;;
69172;SDS011;56280;49.662;8.408;2023-05-24T12:39:36;12.07;;;3.83;;
69172;SDS011;56280;49.662;8.408;2023-05-24T12:42:02;11.83;;;3.90;;
69172;SDS011;56280;49.662;8.408;2023-05-24T12:44:29;13.02;;;3.70;;
69172;SDS011;56280;49.662;8.408;2023-05-24T12:46:56;11.63;;;3.63;;
69172;SDS011;56280;49.662;8.408;2023-05-24T12:49:25;11.57;;;3.90;;
69172;SDS011;56280;49.662;8.408;2023-05-24T12:51:52;14.15;;;3.88;;
69172;SDS011;56280;49.662;8.408;2023-05-24T12:54:18;10.82;;;3.95;;
69172;SDS011;56280;49.662;8.408;2023-05-24T12:56:46;11.95;;;3.75;;
69172;SDS011;56280;49.662;8.408;2023-05-24T12:59:12;14.70;;;4.03;;
69172;SDS011;56280;49.662;8.408;2023-05-24T13:01:37;10.63;;;3.50;;
69172;SDS011;56280;49.662;8.408;2023-05-24T13:04:03;12.00;;;3.95;;
69172;SDS011;56280;49.662;8.408;2023-05-24T13:06:28;11.30;;;3.63;;
69172;SDS011;56280;49.662;8.408;2023-05-24T13:08:53;12.15;;;3.70;;
69172;SDS011;56280;49.662;8.408;2023-05-24T13:11:19;12.50;;;3.90;;
69172;SDS011;56280;49.662;8.408;2023-05-24T13:13:44;13.07;;;3.67;;
69172;SDS011;56280;49.662;8.408;2023-05-24T13:16:10;13.30;;;4.13;;
69172;SDS011;56280;49.662;8.408;2023-05-24T13:18:35;12.07;;;4.47;;
69172;SDS011;56280;49.662;8.408;2023-05-24T13:21:01;12.13;;;4.10;;
69172;SDS011;56280;49.662;8.408;2023-05-24T13:23:29;12.35;;;4.22;;
69172;SDS011;56280;49.662;8.408;2023-05-24T13:25:58;11.48;;;3.92;;
69172;SDS011;56280;49.662;8.408;2023-05-24T13:28:23;10.77;;;3.70;;
69172;SDS011;56280;49.662;8.408;2023-05-24T13:30:49;9.43;;;3.50;;
69172;SDS011;56280;49.662;8.408;2023-05-24T13:33:14;10.40;;;3.80;;
69172;SDS011;56280;49.662;8.408;2023-05-24T13:35:39;12.37;;;3.90;;
69172;SDS011;56280;49.662;8.408;2023-05-24T13:38:05;10.47;;;3.77;;
69172;SDS011;56280;49.662;8.408;2023-05-24T13:40:32;10.88;;;4.10;;
69172;SDS011;56280;49.662;8.408;2023-05-24T13:42:58;12.80;;;3.80;;
69172;SDS011;56280;49.662;8.408;2023-05-24T13:45:24;12.63;;;3.92;;
69172;SDS011;56280;49.662;8.408;2023-05-24T13:47:50;13.38;;;3.58;;
69172;SDS011;56280;49.662;8.408;2023-05-24T13:50:15;13.40;;;3.75;;
69172;SDS011;56280;49.662;8.408;2023-05-24T13:52:41;14.17;;;3.63;;
69172;SDS011;56280;49.662;8.408;2023-05-24T13:55:06;9.70;;;3.90;;
69172;SDS011;56280;49.662;8.408;2023-05-24T13:57:32;10.70;;;3.90;;
69172;SDS011;56280;49.662;8.408;2023-05-24T13:59:58;11.17;;;4.33;;
69172;SDS011;56280;49.662;8.408;2023-05-24T14:02:24;11.05;;;3.50;;
69172;SDS011;56280;49.662;8.408;2023-05-24T14:04:50;12.47;;;3.83;;
69172;SDS011;56280;49.662;8.408;2023-05-24T14:07:16;10.35;;;3.60;;
69172;SDS011;56280;49.662;8.408;2023-05-24T14:09:42;11.25;;;3.60;;
69172;SDS011;56280;49.662;8.408;2023-05-24T14:12:08;13.05;;;3.88;;
69172;SDS011;56280;49.662;8.408;2023-05-24T14:14:33;11.57;;;3.63;;
69172;SDS011;56280;49.662;8.408;2023-05-24T14:16:59;15.85;;;3.67;;
69172;SDS011;56280;49.662;8.408;2023-05-24T14:19:24;12.10;;;4.05;;
69172;SDS011;56280;49.662;8.408;2023-05-24T14:21:49;13.23;;;4.07;;
69172;SDS011;56280;49.662;8.408;2023-05-24T14:24:15;11.03;;;4.00;;
69172;SDS011;56280;49.662;8.408;2023-05-24T14:26:40;11.13;;;4.03;;
69172;SDS011;56280;49.662;8.408;2023-05-24T14:29:06;12.97;;;3.87;;
69172;SDS011;56280;49.662;8.408;2023-05-24T14:31:32;10.38;;;3.92;;
69172;SDS011;56280;49.662;8.408;2023-05-24T14:33:59;10.43;;;3.38;;
69172;SDS011;56280;49.662;8.408;2023-05-24T14:36:25;12.40;;;3.90;;
69172;SDS011;56280;49.662;8.408;2023-05-24T14:38:50;13.00;;;3.57;;
69172;SDS011;56280;49.662;8.408;2023-05-24T14:41:16;10.63;;;3.67;;
69172;SDS011;56280;49.662;8.408;2023-05-24T14:43:41;11.43;;;3.50;;
69172;SDS011;56280;49.662;8.408;2023-05-24T14:46:10;11.38;;;3.72;;
69172;SDS011;56280;49.662;8.408;2023-05-24T14:48:35;13.57;;;3.92;;
69172;SDS011;56280;49.662;8.408;2023-05-24T14:51:05;10.73;;;3.60;;
69172;SDS011;56280;49.662;8.408;2023-05-24T14:53:33;12.25;;;4.13;;